Time;durP1;ratioP1;P1;durP2;ratioP2;P2;SDS_P1;SDS_P2;PMS_P1;PMS_P2;Temp;Humidity;BMP_temperature;BMP_pressure;BME280_temperature;BME280_humidity;BME280_pressure;Samples;Min_cycle;Max_cycle;Signal;HPM_P1;HPM_P2
2022/04/29 00:00:47;;;;;;;9.20;7.47;;;11.60;57.10;;;12.15;47.79;98600.13;5041946;28;20049;-57
2022/04/29 00:03:15;;;;;;;9.75;7.03;;;11.60;57.20;;;12.10;47.89;98610.41;5041967;28;20339;-56
2022/04/29 00:05:46;;;;;;;10.55;7.05;;;11.50;57.20;;;12.07;47.88;98608.03;5041581;28;20049;-56
2022/04/29 00:08:14;;;;;;;12.40;8.07;;;11.50;57.50;;;12.05;47.66;98608.16;5041976;28;20045;-55
2022/04/29 00:10:44;;;;;;;9.73;8.10;;;11.50;57.30;;;12.05;47.70;98605.50;5042241;28;20172;-57
2022/04/29 00:13:15;;;;;;;8.43;6.87;;;11.50;57.40;;;12.01;48.03;98599.63;5041929;28;20049;-56
2022/04/29 00:15:43;;;;;;;8.73;7.07;;;11.50;57.60;;;11.98;48.21;98599.06;5041201;28;20104;-56
2022/04/29 00:18:11;;;;;;;10.40;9.33;;;11.40;57.70;;;11.97;47.92;98600.91;5041768;28;20046;-55
2022/04/29 00:20:39;;;;;;;10.23;7.32;;;11.40;58.00;;;11.92;48.28;98595.19;5041861;28;20260;-57
2022/04/29 00:23:08;;;;;;;9.73;6.82;;;11.30;58.30;;;11.88;48.34;98601.72;5042033;28;20291;-56
2022/04/29 00:25:36;;;;;;;9.05;7.32;;;11.30;58.20;;;11.83;48.21;98593.34;5042238;28;20073;-55
2022/04/29 00:28:05;;;;;;;8.97;5.87;;;11.20;58.40;;;11.79;48.43;98597.28;5040431;28;20045;-57
2022/04/29 00:30:34;;;;;;;8.35;6.50;;;11.20;58.40;;;11.78;48.59;98598.28;5041172;28;20247;-54
2022/04/29 00:33:02;;;;;;;9.43;6.20;;;11.20;58.20;;;11.75;48.68;98588.75;5046007;28;20057;-53
2022/04/29 00:35:30;;;;;;;7.23;6.43;;;11.20;58.40;;;11.76;48.88;98587.72;5045525;28;20053;-56
2022/04/29 00:37:59;;;;;;;7.05;6.35;;;11.20;58.40;;;11.71;48.69;98579.34;5045436;28;20049;-56
2022/04/29 00:40:31;;;;;;;8.90;6.67;;;11.20;58.40;;;11.67;48.87;98577.97;5060764;28;20054;-55
2022/04/29 00:42:59;;;;;;;6.97;5.77;;;11.10;58.90;;;11.65;48.64;98576.41;5045614;28;20049;-53
2022/04/29 00:45:27;;;;;;;11.30;7.53;;;11.00;58.50;;;11.59;48.96;98578.69;5044100;28;20067;-56
2022/04/29 00:47:55;;;;;;;6.73;5.47;;;11.00;58.60;;;11.57;49.13;98579.78;5044204;28;20328;-51
2022/04/29 00:50:28;;;;;;;7.00;5.83;;;11.00;58.60;;;11.50;49.11;98578.72;5044989;28;20041;-57
2022/04/29 00:52:59;;;;;;;6.63;5.77;;;10.90;58.70;;;11.51;49.01;98570.53;5043772;28;20056;-56
2022/04/29 00:55:29;;;;;;;6.83;6.13;;;10.90;58.60;;;11.51;49.08;98577.72;5043683;28;20075;-58
2022/04/29 00:58:17;;;;;;;5.60;4.97;;;11.00;58.40;;;11.38;49.32;98572.69;5045612;28;20051;-53
2022/04/29 01:00:47;;;;;;;7.67;6.87;;;10.80;59.20;;;11.32;49.08;98573.25;5044164;28;20053;-56
2022/04/29 01:03:15;;;;;;;6.87;5.77;;;10.70;59.00;;;11.31;49.07;98572.44;5043883;28;20045;-56
2022/04/29 01:05:43;;;;;;;7.07;5.57;;;10.70;59.00;;;11.29;49.43;98565.56;5044349;28;20057;-55
2022/04/29 01:08:11;;;;;;;7.00;5.97;;;10.70;58.90;;;11.29;49.14;98561.06;5045300;28;20054;-56
2022/04/29 01:10:39;;;;;;;5.93;5.33;;;10.70;58.90;;;11.32;48.99;98560.78;5044735;28;20261;-57
2022/04/29 01:13:09;;;;;;;6.83;5.70;;;10.80;58.80;;;11.35;49.27;98559.66;5045232;28;20040;-54
2022/04/29 01:15:37;;;;;;;6.37;5.70;;;10.80;58.30;;;11.32;48.94;98557.25;5043151;28;20053;-56
2022/04/29 01:18:11;;;;;;;7.60;6.17;;;10.80;58.30;;;11.37;49.01;98552.34;5044796;28;20055;-57
2022/04/29 01:20:39;;;;;;;11.55;6.53;;;10.90;58.30;;;11.38;48.81;98557.53;5043546;28;20064;-56
2022/04/29 01:23:12;;;;;;;6.97;6.00;;;10.90;58.30;;;11.40;49.27;98554.75;5043567;28;20049;-56
2022/04/29 01:25:41;;;;;;;7.20;5.90;;;10.90;58.40;;;11.39;48.70;98555.72;5044221;28;20221;-53
2022/04/29 01:28:09;;;;;;;6.53;5.23;;;10.90;58.20;;;11.40;48.92;98554.75;5044496;28;20055;-52
2022/04/29 01:30:41;;;;;;;7.93;6.23;;;10.90;58.10;;;11.38;48.90;98556.69;5043202;28;20049;-55
2022/04/29 01:33:12;;;;;;;7.40;6.10;;;10.90;58.10;;;11.38;48.68;98562.88;5044146;28;20045;-55
2022/04/29 01:35:40;;;;;;;6.57;5.87;;;10.90;58.30;;;11.36;49.50;98558.66;5026986;28;20061;-56
2022/04/29 01:38:08;;;;;;;8.40;6.30;;;10.90;58.40;;;11.37;49.13;98563.00;5043642;28;20053;-55
2022/04/29 01:40:36;;;;;;;7.57;6.20;;;10.90;58.50;;;11.38;49.12;98564.69;5044507;28;20057;-52
2022/04/29 01:43:10;;;;;;;7.17;6.47;;;10.90;58.20;;;11.33;49.46;98565.13;5043517;28;20055;-51
2022/04/29 01:45:38;;;;;;;8.20;5.83;;;10.80;58.60;;;11.27;48.97;98560.38;5042670;28;20233;-56
2022/04/29 01:48:21;;;;;;;7.93;5.90;;;10.60;58.80;;;11.21;49.77;98559.13;5042503;28;20053;-55
2022/04/29 01:50:57;;;;;;;7.53;5.80;;;10.60;59.30;;;11.15;49.61;98561.53;5042733;28;20045;-55
2022/04/29 01:53:25;;;;;;;7.20;6.07;;;10.60;59.60;;;11.12;50.02;98559.97;5043995;28;20335;-55
2022/04/29 01:55:56;;;;;;;8.90;6.70;;;10.50;59.80;;;11.08;49.83;98560.41;5042353;28;20056;-55
2022/04/29 01:58:24;;;;;;;7.67;6.00;;;10.50;59.90;;;11.04;49.89;98552.69;5043573;28;20053;-53
2022/04/29 02:00:53;;;;;;;7.80;6.73;;;10.40;59.90;;;10.98;49.85;98553.25;5059386;28;20049;-53
2022/04/29 02:03:21;;;;;;;7.30;6.60;;;10.40;59.90;;;10.96;50.02;98551.72;5042763;28;20049;-55
2022/04/29 02:05:49;;;;;;;8.10;6.53;;;10.40;60.00;;;10.91;49.91;98544.13;5058673;28;20059;-56
2022/04/29 02:08:17;;;;;;;7.53;6.23;;;10.40;60.20;;;10.87;50.47;98547.22;5042556;28;20075;-55
2022/04/29 02:10:46;;;;;;;9.00;6.57;;;10.30;60.40;;;10.84;50.56;98549.19;5058863;28;20041;-54
2022/04/29 02:13:19;;;;;;;7.88;6.38;;;10.20;60.60;;;10.83;50.18;98544.00;5042527;28;20390;-56
2022/04/29 02:15:54;;;;;;;7.20;6.00;;;10.30;60.80;;;10.82;50.32;98537.00;5042065;28;20060;-51
2022/04/29 02:18:22;;;;;;;6.87;5.60;;;10.30;61.00;;;10.81;50.76;98525.50;5042601;28;20237;-54
2022/04/29 02:20:49;;;;;;;8.13;5.60;;;10.20;61.00;;;10.78;50.62;98532.94;5042259;28;20053;-53
2022/04/29 02:23:17;;;;;;;6.50;5.43;;;10.20;61.20;;;10.78;51.13;98539.09;5042135;28;20059;-55
2022/04/29 02:25:45;;;;;;;7.47;5.53;;;10.30;61.20;;;10.75;50.51;98539.38;5043020;28;20069;-52
2022/04/29 02:28:13;;;;;;;7.83;6.10;;;10.20;61.10;;;10.73;50.67;98529.84;5042110;28;20049;-51
2022/04/29 02:30:41;;;;;;;8.03;6.70;;;10.20;60.90;;;10.74;50.77;98531.53;5042016;28;20045;-54
2022/04/29 02:33:09;;;;;;;6.97;5.73;;;10.30;60.90;;;10.72;50.64;98528.16;5058800;28;20378;-55
2022/04/29 02:35:37;;;;;;;7.67;6.20;;;10.20;60.50;;;10.71;50.78;98531.81;5042922;28;20048;-54
2022/04/29 02:38:05;;;;;;;7.33;5.97;;;10.20;60.70;;;10.70;50.63;98533.66;5042059;28;20362;-55
2022/04/29 02:40:33;;;;;;;11.97;6.90;;;10.20;60.70;;;10.66;50.50;98532.22;5043892;28;20512;-52
2022/04/29 02:43:01;;;;;;;7.13;6.37;;;10.10;61.20;;;10.63;50.65;98525.38;5042194;28;20059;-55
2022/04/29 02:45:29;;;;;;;7.03;6.30;;;10.10;61.40;;;10.64;51.14;98527.06;5042295;28;20053;-53
2022/04/29 02:47:57;;;;;;;9.80;7.03;;;10.10;60.90;;;10.62;50.62;98515.72;5040791;28;20049;-53
2022/04/29 02:50:26;;;;;;;7.90;6.17;;;10.10;61.10;;;10.57;51.06;98519.78;5041689;28;20041;-54
2022/04/29 02:52:59;;;;;;;8.15;6.97;;;10.00;61.20;;;10.55;50.75;98516.41;5058544;28;20051;-51
2022/04/29 02:55:27;;;;;;;7.83;6.73;;;10.00;61.30;;;10.53;51.17;98518.38;5041635;28;20051;-56
2022/04/29 02:58:09;;;;;;;11.70;7.00;;;10.00;61.30;;;10.42;51.14;98520.16;5027252;28;20056;-53
2022/04/29 03:00:37;;;;;;;8.23;7.33;;;9.80;61.70;;;10.39;50.91;98522.25;5058089;28;20065;-55
2022/04/29 03:03:05;;;;;;;7.70;6.87;;;9.80;61.90;;;10.39;51.33;98511.59;5040963;28;20049;-54
2022/04/29 03:05:33;;;;;;;11.40;8.40;;;9.80;61.70;;;10.37;51.30;98511.78;5041112;28;20053;-55
2022/04/29 03:08:01;;;;;;;7.60;6.80;;;9.80;61.40;;;10.38;51.16;98518.75;5042513;28;20342;-55
2022/04/29 03:10:30;;;;;;;7.80;6.63;;;9.90;61.50;;;10.41;51.06;98514.97;5041478;28;20049;-52
2022/04/29 03:12:59;;;;;;;7.67;6.87;;;9.90;61.50;;;10.39;51.68;98512.47;5041408;28;20045;-53
2022/04/29 03:15:36;;;;;;;8.20;6.97;;;9.90;62.00;;;10.37;51.08;98506.44;5041402;28;20057;-53
2022/04/29 03:18:22;;;;;;;7.50;6.43;;;9.80;61.80;;;10.36;51.60;98512.75;5042060;28;20055;-54
2022/04/29 03:20:53;;;;;;;13.00;9.67;;;9.80;61.90;;;10.33;51.31;98512.16;5041618;28;20251;-55
2022/04/29 03:23:23;;;;;;;11.83;10.43;;;9.80;62.10;;;10.30;51.79;98509.78;5041552;28;20056;-56
2022/04/29 03:25:53;;;;;;;14.13;10.50;;;9.70;62.40;;;10.23;51.68;98507.63;5041973;28;20041;-51
2022/04/29 03:28:22;;;;;;;11.47;10.37;;;9.60;62.60;;;10.22;51.53;98500.66;5025226;28;20075;-55
2022/04/29 03:30:51;;;;;;;10.03;8.60;;;9.60;62.50;;;10.21;51.86;98493.63;5041157;28;20055;-53
2022/04/29 03:33:23;;;;;;;7.47;6.63;;;9.70;62.50;;;10.22;51.68;98491.84;5041125;28;20055;-55
2022/04/29 03:35:52;;;;;;;8.37;7.37;;;9.70;62.40;;;10.22;51.36;98498.00;5040676;28;20049;-52
2022/04/29 03:38:30;;;;;;;8.20;7.37;;;9.70;62.40;;;10.16;51.81;98489.72;5040837;28;20225;-53
2022/04/29 03:40:58;;;;;;;7.47;6.57;;;9.60;62.60;;;10.04;51.74;98496.97;5041239;28;20053;-55
2022/04/29 03:43:29;;;;;;;8.53;7.13;;;9.40;63.20;;;9.98;52.22;98494.84;5057908;28;20091;-51
2022/04/29 03:45:57;;;;;;;10.17;7.60;;;9.40;63.60;;;9.96;51.91;98502.97;5040100;28;20065;-55
2022/04/29 03:51:36;;;;;;;9.57;7.90;;;9.40;63.80;;;9.97;52.42;98499.34;5042501;28;20151;-54
2022/04/29 03:54:04;;;;;;;8.33;6.97;;;9.40;63.60;;;9.97;52.12;98491.38;5057305;28;20056;-55
2022/04/29 03:56:37;;;;;;;9.30;7.53;;;9.40;63.60;;;9.95;52.65;98498.63;5040972;28;20049;-54
2022/04/29 03:59:05;;;;;;;9.87;7.47;;;9.30;63.80;;;9.86;52.49;98494.13;5040624;28;20060;-53
2022/04/29 04:01:33;;;;;;;9.07;7.27;;;9.30;64.30;;;9.80;52.84;98498.16;5042067;28;20057;-52
2022/04/29 04:04:07;;;;;;;14.73;10.10;;;9.20;64.50;;;9.79;52.65;98501.81;5042024;28;20045;-54
2022/04/29 04:06:51;;;;;;;11.07;8.27;;;9.20;64.70;;;9.80;52.89;98500.00;5043852;28;20057;-55
2022/04/29 04:09:24;;;;;;;12.27;8.27;;;9.20;64.90;;;9.78;53.08;98499.28;5044868;28;20355;-54
2022/04/29 04:11:56;;;;;;;8.80;7.93;;;9.20;64.90;;;9.78;52.62;98505.44;5044660;28;20053;-53
2022/04/29 04:14:50;;;;;;;8.50;7.60;;;9.20;64.60;;;9.81;53.13;98507.00;5045982;28;20046;-56
2022/04/29 04:17:18;;;;;;;8.27;7.37;;;9.20;64.40;;;9.85;52.78;98513.75;5043798;28;20378;-55
2022/04/29 04:19:47;;;;;;;8.63;7.60;;;9.30;64.10;;;9.82;52.91;98509.50;5044744;28;20248;-54
2022/04/29 04:22:15;;;;;;;9.97;7.13;;;9.30;64.20;;;9.83;52.94;98505.88;5046359;28;20075;-55
2022/04/29 04:24:43;;;;;;;10.33;8.10;;;9.30;64.30;;;9.84;52.75;98512.03;5028300;28;20059;-55
2022/04/29 04:27:11;;;;;;;10.77;9.00;;;9.30;64.10;;;9.86;52.87;98518.91;5044719;28;20053;-53
2022/04/29 04:29:40;;;;;;;9.83;7.93;;;9.40;63.70;;;9.88;52.46;98515.28;5044354;28;20060;-55
2022/04/29 04:32:09;;;;;;;8.53;7.63;;;9.40;63.50;;;9.89;52.55;98524.91;5044324;28;20049;-53
2022/04/29 04:34:53;;;;;;;10.07;8.60;;;9.40;63.70;;;9.88;52.92;98525.91;5045466;28;20055;-51
2022/04/29 04:37:23;;;;;;;;;;;9.40;63.90;;;9.81;52.84;98531.78;5061269;28;20046;-54
2022/04/29 04:39:59;;;;;;;12.30;11.00;;;9.30;65.60;;;9.85;53.09;98527.88;5044628;28;19923;-55
2022/04/29 04:42:46;;;;;;;13.60;9.10;;;9.30;64.40;;;9.84;53.32;98526.16;5044223;28;20055;-55
2022/04/29 04:45:27;;;;;;;10.50;9.03;;;9.40;65.10;;;9.89;52.99;98531.09;5029334;28;20059;-53
2022/04/29 04:48:21;;;;;;;16.45;9.10;;;9.40;64.70;;;9.90;53.35;98527.44;5052677;28;20348;-55
2022/04/29 04:51:18;;;;;;;11.60;9.07;;;9.40;64.30;;;9.94;53.36;98520.88;5026382;28;20058;-54
2022/04/29 04:53:50;;;;;;;10.10;8.90;;;9.50;64.50;;;9.92;53.37;98530.81;5044394;28;20337;-52
2022/04/29 04:56:19;;;;;;;14.43;10.10;;;9.40;64.80;;;9.91;53.30;98525.66;5059650;28;20053;-53
2022/04/29 04:58:48;;;;;;;12.03;9.20;;;9.40;65.20;;;9.91;53.29;98520.34;5043503;28;20054;-56
2022/04/29 05:01:17;;;;;;;10.57;8.93;;;9.40;65.20;;;9.87;53.78;98530.41;5043959;28;20053;-56
2022/04/29 05:04:04;;;;;;;13.43;8.90;;;9.40;65.70;;;9.91;53.97;98536.28;5050833;28;20048;-55
2022/04/29 05:06:53;;;;;;;10.40;8.03;;;9.40;65.60;;;9.99;53.77;98531.13;5044532;28;20063;-56
2022/04/29 05:09:20;;;;;;;13.80;9.30;;;9.60;65.20;;;10.05;53.79;98534.06;5045631;28;20053;-52
2022/04/29 05:11:49;;;;;;;11.43;10.07;;;9.70;65.20;;;10.12;53.34;98531.72;5044851;28;20049;-57
2022/04/29 05:14:45;;;;;;;9.37;8.37;;;9.80;64.70;;;10.18;53.50;98535.66;5049687;28;20355;-52
2022/04/29 05:17:13;;;;;;;10.17;8.13;;;9.80;64.00;;;10.19;53.41;98538.16;5042978;28;20049;-57
2022/04/29 05:19:41;;;;;;;16.27;9.47;;;9.90;64.10;;;10.23;53.63;98538.75;5044815;28;20348;-55
2022/04/29 05:22:12;;;;;;;11.60;8.70;;;9.90;64.60;;;10.26;53.46;98549.13;5043579;28;20053;-53
2022/04/29 05:24:40;;;;;;;10.87;8.80;;;9.90;64.50;;;10.29;53.68;98538.19;5043309;28;20050;-54
2022/04/29 05:27:27;;;;;;;12.40;9.53;;;10.00;64.50;;;10.34;53.19;98538.66;5048510;28;20048;-53
2022/04/29 05:30:25;;;;;;;11.43;8.73;;;10.00;63.70;;;10.37;53.22;98543.72;5043208;28;20059;-56
2022/04/29 05:33:12;;;;;;;13.80;8.93;;;10.00;64.00;;;10.37;53.55;98546.38;5043650;28;20033;-53
2022/04/29 05:36:11;;;;;;;11.03;9.10;;;10.00;64.20;;;10.38;53.43;98557.84;5043971;28;20064;-52
2022/04/29 05:44:38;;;;;;;10.90;9.73;;;10.00;64.50;;;10.38;53.59;98558.69;5044242;28;20053;-55
2022/04/29 05:47:06;;;;;;;15.27;10.53;;;10.00;64.20;;;10.36;53.05;98558.00;5041697;28;20053;-55
2022/04/29 05:49:35;;;;;;;10.17;8.93;;;9.90;64.00;;;10.41;53.10;98553.09;5042942;28;20083;-55
2022/04/29 05:52:05;;;;;;;12.20;9.57;;;10.00;63.60;;;10.49;52.99;98564.88;5042892;28;20045;-55
2022/04/29 05:54:36;;;;;;;10.07;8.97;;;10.10;63.50;;;10.55;52.99;98561.69;5043606;28;20251;-53
2022/04/29 05:57:11;;;;;;;10.37;8.47;;;10.30;63.60;;;10.67;53.19;98565.03;5059561;28;20336;-56
2022/04/29 05:59:39;;;;;;;9.77;7.87;;;10.40;63.30;;;10.78;53.17;98565.75;5043075;28;20244;-51
2022/04/29 06:02:27;;;;;;;10.40;8.87;;;10.60;63.20;;;10.90;53.72;98560.28;5042642;28;20243;-53
2022/04/29 06:05:09;;;;;;;10.07;8.93;;;10.80;63.30;;;10.99;53.46;98562.94;5043048;28;20085;-54
2022/04/29 06:07:39;;;;;;;11.77;8.83;;;10.80;63.10;;;11.09;53.21;98560.25;5058788;28;20255;-56
2022/04/29 06:10:08;;;;;;;10.52;9.38;;;11.00;62.80;;;11.18;52.97;98561.22;5042617;28;20370;-55
2022/04/29 06:12:43;;;;;;;9.37;8.40;;;11.10;62.60;;;11.29;53.11;98560.22;5042355;28;20045;-53
2022/04/29 06:15:21;;;;;;;10.47;8.77;;;11.20;62.40;;;11.36;53.48;98562.19;5042104;28;20314;-52
2022/04/29 06:18:26;;;;;;;10.65;9.45;;;11.30;62.40;;;11.46;53.39;98556.81;5042526;28;20049;-55
2022/04/29 06:21:13;;;;;;;11.43;9.40;;;11.40;62.40;;;11.58;53.93;98563.66;5046773;28;20042;-52
2022/04/29 06:23:48;;;;;;;9.47;8.10;;;11.60;64.00;;;11.66;54.39;98560.25;5042339;28;20247;-56
2022/04/29 06:26:17;;;;;;;10.88;8.65;;;11.60;64.50;;;11.76;53.95;98557.56;5059012;28;20222;-55
2022/04/29 06:28:45;;;;;;;12.95;9.27;;;11.80;64.10;;;11.86;54.27;98562.84;5043121;28;20057;-54
2022/04/29 06:31:14;;;;;;;10.20;8.43;;;11.90;64.90;;;11.96;54.88;98561.00;5058792;28;20052;-56
2022/04/29 06:34:00;;;;;;;9.93;8.88;;;12.00;65.30;;;12.07;55.00;98563.50;5045974;28;20041;-55
2022/04/29 06:36:29;;;;;;;10.95;8.93;;;12.10;65.10;;;12.14;54.56;98561.09;5041638;28;20052;-52
2022/04/29 06:39:00;;;;;;;9.90;8.15;;;12.20;65.10;;;12.23;54.45;98562.84;5042160;28;20061;-54
2022/04/29 06:41:46;;;;;;;9.30;8.32;;;12.30;64.70;;;12.31;54.59;98568.28;5047147;28;20048;-55
2022/04/29 06:44:41;;;;;;;10.60;8.50;;;12.40;64.40;;;12.41;54.30;98568.22;5043104;28;20053;-51
2022/04/29 06:47:45;;;;;;;;;;;12.50;64.20;;;12.45;54.54;98566.94;5041546;28;20067;-51
2022/04/29 06:50:33;;;;;;;9.80;8.65;;;12.50;65.50;;;12.55;54.05;98574.88;5045639;28;19917;-50
2022/04/29 06:53:16;;;;;;;9.87;8.87;;;12.50;64.20;;;12.59;54.40;98570.91;5043091;28;20033;-53
2022/04/29 06:55:44;;;;;;;13.15;9.50;;;12.60;64.10;;;12.63;54.35;98566.94;5041669;28;20336;-53
2022/04/29 06:58:12;;;;;;;16.00;9.10;;;12.70;65.00;;;12.69;54.64;98562.81;5041713;28;20049;-54
2022/04/29 07:00:42;;;;;;;14.50;9.05;;;12.70;64.50;;;12.73;54.31;98565.03;5057940;28;20247;-52
2022/04/29 07:03:11;;;;;;;14.82;9.32;;;12.80;64.20;;;12.77;53.69;98562.91;5041215;28;20049;-53
2022/04/29 07:05:41;;;;;;;11.23;9.23;;;12.80;62.70;;;12.80;52.71;98568.78;5042329;28;20076;-54
2022/04/29 07:08:13;;;;;;;11.63;6.82;;;12.80;60.80;;;12.85;52.56;98562.13;5041706;28;20060;-53
2022/04/29 07:11:00;;;;;;;8.40;6.75;;;12.80;60.60;;;12.86;51.57;98555.81;5045380;28;20042;-50
2022/04/29 07:13:57;;;;;;;11.63;7.10;;;12.90;59.40;;;12.87;51.65;98552.13;5038853;28;20351;-51
2022/04/29 07:16:30;;;;;;;10.35;7.50;;;12.90;59.00;;;12.90;51.22;98551.84;5040891;28;20057;-51
2022/04/29 07:19:18;;;;;;;8.82;7.35;;;12.90;58.80;;;12.93;51.42;98552.38;5042239;28;20053;-54
2022/04/29 07:21:46;;;;;;;10.18;8.02;;;12.90;58.80;;;12.96;51.31;98549.38;5041658;28;20250;-51
2022/04/29 07:24:14;;;;;;;10.68;8.90;;;13.00;58.90;;;12.99;51.21;98545.56;5042138;28;20060;-53
2022/04/29 07:26:42;;;;;;;9.23;8.15;;;13.00;59.10;;;13.03;51.58;98544.25;5042095;28;20055;-55
2022/04/29 07:29:13;;;;;;;12.25;7.78;;;13.00;59.30;;;13.06;51.56;98543.94;5041241;28;20059;-52
2022/04/29 07:31:47;;;;;;;9.82;8.32;;;13.10;59.40;;;13.08;51.77;98547.28;5040894;28;20049;-51
2022/04/29 07:43:54;;;;;;;11.50;8.50;;;13.10;60.00;;;13.07;51.90;98544.81;5041010;28;20057;-52
2022/04/29 07:46:22;;;;;;;11.40;9.75;;;13.00;60.20;;;13.06;51.79;98535.09;5040496;28;20059;-53
2022/04/29 07:49:09;;;;;;;11.55;9.63;;;13.00;60.50;;;12.99;52.04;98546.41;5042092;28;20049;-55
2022/04/29 07:51:38;;;;;;;11.20;9.38;;;12.90;60.20;;;12.97;52.05;98544.88;5057271;28;20057;-54
2022/04/29 07:54:07;;;;;;;13.18;9.35;;;12.90;60.20;;;12.96;52.19;98543.19;5040754;28;20053;-52
2022/04/29 07:56:35;;;;;;;12.52;9.65;;;12.90;60.60;;;12.99;52.33;98548.25;5040911;28;20050;-52
2022/04/29 07:59:03;;;;;;;11.70;10.00;;;12.90;60.80;;;13.03;52.28;98546.94;5040549;28;20053;-52
2022/04/29 08:01:33;;;;;;;10.73;9.63;;;13.00;60.80;;;13.08;52.52;98541.94;5041146;28;20128;-51
2022/04/29 08:04:02;;;;;;;10.50;9.32;;;13.00;61.10;;;13.12;52.34;98548.66;5025334;28;20049;-50
2022/04/29 08:06:33;;;;;;;13.82;10.32;;;13.10;61.00;;;13.18;52.17;98549.88;5040728;28;20054;-51
2022/04/29 08:09:21;;;;;;;11.88;9.50;;;13.20;60.70;;;13.25;52.00;98550.94;5042412;28;20052;-52
2022/04/29 08:11:49;;;;;;;12.45;10.10;;;13.30;60.00;;;13.31;51.54;98558.38;5042002;28;20058;-52
2022/04/29 08:14:29;;;;;;;11.57;10.43;;;13.30;59.60;;;13.38;51.50;98555.91;5046208;28;20240;-53
2022/04/29 08:17:33;;;;;;;11.95;9.18;;;13.40;59.40;;;13.45;51.67;98554.28;5056688;28;20065;-52
2022/04/29 08:20:02;;;;;;;12.50;9.95;;;13.50;59.20;;;13.53;51.63;98548.13;5041931;28;20045;-52
2022/04/29 08:22:42;;;;;;;13.98;8.93;;;13.60;59.30;;;13.58;50.85;98551.19;5042045;28;20057;-52
2022/04/29 08:25:11;;;;;;;11.85;8.95;;;13.70;58.20;;;13.67;50.69;98552.91;5057653;28;20059;-51
2022/04/29 08:27:40;;;;;;;12.57;7.65;;;13.80;57.90;;;13.74;49.86;98543.22;5041638;28;20064;-50
2022/04/29 08:30:09;;;;;;;9.32;7.90;;;13.90;56.60;;;13.82;49.26;98545.13;5040250;28;20055;-53
2022/04/29 08:32:43;;;;;;;15.57;8.85;;;13.90;55.50;;;13.89;48.78;98548.00;5040692;28;20096;-54
2022/04/29 08:35:34;;;;;;;11.23;8.27;;;14.00;54.80;;;13.96;48.39;98541.03;5040206;28;20067;-52
2022/04/29 08:38:02;;;;;;;12.30;8.23;;;14.10;54.30;;;14.03;48.13;98539.34;5040596;28;20056;-53
2022/04/29 08:40:44;;;;;;;10.80;8.60;;;14.20;54.00;;;14.11;47.96;98539.41;5057066;28;20369;-52
2022/04/29 08:43:15;;;;;;;9.60;7.72;;;14.30;53.70;;;14.20;47.90;98542.94;5040463;28;20049;-53
2022/04/29 08:45:45;;;;;;;12.60;7.82;;;14.40;53.50;;;14.28;47.38;98540.28;5057574;28;20224;-55
2022/04/29 08:48:45;;;;;;;11.02;8.73;;;14.50;53.10;;;14.38;46.85;98534.78;5055869;28;20420;-55
2022/04/29 08:51:14;;;;;;;10.55;7.93;;;14.60;52.10;;;14.46;46.68;98542.00;5041534;28;20457;-55
2022/04/29 08:53:42;;;;;;;12.90;8.30;;;14.70;52.20;;;14.58;46.40;98535.38;5045813;28;20050;-55
2022/04/29 08:58:57;;;;;;;11.57;8.77;;;14.90;51.60;;;14.77;46.44;98531.53;5045212;28;20045;-56
2022/04/29 09:01:26;;;;;;;7.75;6.28;;;15.10;51.30;;;14.85;45.65;98531.56;5043800;28;20053;-51
2022/04/29 09:03:54;;;;;;;10.15;7.90;;;15.10;50.60;;;14.95;45.87;98523.34;5043865;28;20053;-57
2022/04/29 09:06:22;;;;;;;10.95;7.90;;;15.30;50.70;;;15.05;45.71;98528.53;5044511;28;20055;-57
2022/04/29 09:08:50;;;;;;;7.65;6.78;;;15.40;50.60;;;15.14;45.72;98523.00;5045002;28;20055;-53
2022/04/29 09:11:26;;;;;;;10.80;8.23;;;15.50;50.50;;;15.25;44.99;98524.47;5044622;28;20053;-52
2022/04/29 09:13:55;;;;;;;11.23;7.88;;;15.60;48.60;;;15.34;45.05;98517.28;5044803;28;20045;-52
2022/04/29 09:16:32;;;;;;;11.93;9.02;;;15.70;49.50;;;15.41;44.60;98523.63;5042822;28;20049;-52
2022/04/29 09:19:01;;;;;;;11.40;8.23;;;15.80;49.10;;;15.51;44.60;98520.78;5043526;28;20045;-54
2022/04/29 09:21:32;;;;;;;11.85;7.88;;;15.90;49.10;;;15.61;44.67;98523.25;5044629;28;20045;-54
2022/04/29 09:24:06;;;;;;;14.52;8.25;;;16.00;49.00;;;15.69;44.47;98502.59;5045315;28;20063;-54
2022/04/29 09:27:06;;;;;;;11.30;7.03;;;16.10;48.70;;;15.83;44.53;98508.28;5043468;28;20063;-54
2022/04/29 09:29:59;;;;;;;11.65;7.82;;;16.20;48.90;;;15.91;43.90;98502.88;5044798;28;20057;-55
2022/04/29 09:32:48;;;;;;;9.40;7.10;;;16.40;47.20;;;15.98;43.22;98498.47;5045160;28;20041;-56
2022/04/29 09:35:41;;;;;;;10.38;7.38;;;16.40;44.80;;;16.03;43.23;98497.94;5047947;28;20048;-56
2022/04/29 09:41:00;;;;;;;8.80;6.75;;;16.40;46.40;;;16.05;42.49;98482.50;5044332;28;20042;-55
2022/04/29 09:43:44;;;;;;;11.38;7.85;;;16.40;46.40;;;16.07;42.06;98473.25;5044433;28;20213;-56
2022/04/29 09:46:23;;;;;;;8.25;6.47;;;16.40;45.60;;;16.09;41.21;98478.44;5044092;28;20056;-56
2022/04/29 09:49:08;;;;;;;7.97;6.55;;;16.40;44.90;;;16.11;41.67;98484.47;5043027;28;20375;-55
2022/04/29 09:51:51;;;;;;;8.00;5.72;;;16.40;45.70;;;16.16;42.15;98481.28;5044132;28;20045;-57
2022/04/29 09:54:28;;;;;;;10.52;5.68;;;16.40;44.30;;;16.17;41.46;98483.78;5043967;28;20347;-57
2022/04/29 09:57:18;;;;;;;9.68;5.90;;;16.40;43.60;;;16.19;41.64;98476.38;5044127;28;20041;-57
2022/04/29 09:59:51;;;;;;;8.10;6.18;;;16.50;43.70;;;16.24;41.43;98475.84;5044964;28;20064;-56
2022/04/29 10:02:22;;;;;;;9.20;6.13;;;16.50;45.00;;;16.26;41.06;98461.22;5043888;28;20261;-54
2022/04/29 10:04:54;;;;;;;7.35;5.22;;;16.50;44.50;;;16.33;40.62;98472.09;5059551;28;20259;-57
2022/04/29 10:07:25;;;;;;;7.10;5.93;;;16.60;43.60;;;16.36;40.33;98465.53;5043283;28;20046;-56
2022/04/29 10:10:03;;;;;;;6.63;5.88;;;16.60;43.30;;;16.40;40.17;98464.16;5042391;28;20055;-51
2022/04/29 10:12:33;;;;;;;9.77;5.45;;;16.70;43.50;;;16.40;38.98;98456.94;5043975;28;20248;-54
2022/04/29 10:15:21;;;;;;;7.03;5.30;;;16.70;41.90;;;16.49;40.05;98460.41;5045209;28;20044;-53
2022/04/29 10:21:16;;;;;;;9.43;5.93;;;16.80;42.90;;;16.59;38.76;98460.16;5046813;28;20279;-52
2022/04/29 10:23:51;;;;;;;6.85;5.00;;;16.80;40.80;;;16.67;39.03;98458.25;5027694;28;20372;-52
2022/04/29 10:26:23;;;;;;;6.55;4.47;;;16.90;41.90;;;16.72;38.69;98460.38;5043336;28;20067;-56
2022/04/29 10:28:52;;;;;;;5.82;5.10;;;17.00;40.80;;;16.81;38.95;98451.25;5042491;28;20107;-53
2022/04/29 10:31:22;;;;;;;6.32;5.63;;;17.10;41.90;;;16.89;39.09;98445.81;5042472;28;20049;-52
2022/04/29 10:33:50;;;;;;;6.10;4.82;;;17.30;41.70;;;16.98;38.84;98453.81;5043098;28;20244;-53
2022/04/29 10:36:26;;;;;;;6.25;4.30;;;17.30;41.60;;;17.09;39.00;98446.13;5041313;28;20049;-54
2022/04/29 10:39:01;;;;;;;5.55;4.95;;;17.50;41.50;;;17.21;38.42;98443.81;5041960;28;20047;-56
2022/04/29 10:41:30;;;;;;;6.97;4.97;;;17.70;40.30;;;17.34;38.52;98434.28;5042326;28;20243;-51
2022/04/29 10:43:58;;;;;;;7.82;5.35;;;17.80;40.90;;;17.45;38.42;98437.34;5042164;28;20052;-53
2022/04/29 10:46:38;;;;;;;8.70;6.03;;;17.90;40.70;;;17.55;37.37;98428.16;5042594;28;20060;-52
2022/04/29 10:49:30;;;;;;;6.80;5.35;;;18.10;38.50;;;17.68;37.52;98426.47;5047917;28;20251;-54
2022/04/29 10:52:28;;;;;;;6.03;5.43;;;18.20;38.80;;;17.82;38.09;98422.09;5048180;28;20370;-51
2022/04/29 10:55:06;;;;;;;7.45;6.32;;;18.30;40.50;;;17.93;37.93;98426.16;5043052;28;20037;-52
2022/04/29 10:57:51;;;;;;;6.63;5.25;;;18.50;40.30;;;18.01;37.76;98431.47;5043663;28;20369;-56
2022/04/29 11:00:22;;;;;;;6.25;5.22;;;18.50;40.00;;;18.06;37.72;98429.00;5058271;28;20056;-53
2022/04/29 11:02:51;;;;;;;7.43;5.75;;;18.60;39.90;;;18.13;37.41;98425.59;5041986;28;20128;-52
2022/04/29 11:05:40;;;;;;;7.03;5.72;;;18.60;39.60;;;18.10;35.51;98419.53;5043179;28;20077;-54
2022/04/29 11:08:10;;;;;;;9.40;5.80;;;18.70;37.30;;;18.18;37.63;98417.75;5041464;28;20064;-56
2022/04/29 11:10:59;;;;;;;8.80;6.72;;;18.70;40.00;;;18.17;35.94;98414.22;5042809;28;20065;-53
2022/04/29 11:13:45;;;;;;;5.88;5.30;;;18.70;37.90;;;18.20;36.18;98416.50;5041735;28;20055;-53